createdAt,value
2022-11-15T00:00:04.477Z,9.33
2022-11-15T00:02:31.176Z,9.36
2022-11-15T00:04:57.874Z,9.40
2022-11-15T00:07:53.597Z,9.41
2022-11-15T00:10:10.940Z,9.45
2022-11-15T00:12:37.572Z,9.48
2022-11-15T00:15:04.353Z,9.52
2022-11-15T00:17:30.923Z,9.55
2022-11-15T00:19:57.454Z,9.59
2022-11-15T00:22:23.979Z,9.66
2022-11-15T00:24:50.483Z,9.76
2022-11-15T00:27:16.987Z,9.85
2022-11-15T00:29:44.337Z,9.94
2022-11-15T00:32:11.304Z,10.04
2022-11-15T00:34:38.021Z,10.12
2022-11-15T00:37:04.530Z,10.20
2022-11-15T00:39:31.057Z,10.25
2022-11-15T00:41:57.613Z,10.30
2022-11-15T00:44:24.180Z,10.35
2022-11-15T00:46:50.627Z,10.35
2022-11-15T00:49:17.110Z,10.37
2022-11-15T00:51:43.563Z,10.39
2022-11-15T00:54:10.010Z,10.39
2022-11-15T00:56:36.601Z,10.39
2022-11-15T00:59:03.157Z,10.44
2022-11-15T01:01:29.826Z,10.42
2022-11-15T01:04:01.107Z,10.46
2022-11-15T01:06:28.089Z,10.54
2022-11-15T01:08:54.560Z,10.59
2022-11-15T01:11:21.228Z,10.58
2022-11-15T01:13:47.776Z,10.66
2022-11-15T01:16:17.974Z,10.70
2022-11-15T01:18:45.288Z,10.73
2022-11-15T01:21:16.581Z,10.76
2022-11-15T01:23:43.436Z,10.76
2022-11-15T01:26:13.248Z,10.76
2022-11-15T01:28:41.996Z,10.83
2022-11-15T01:31:14.593Z,10.85
2022-11-15T01:33:41.447Z,10.89
2022-11-15T01:36:20.122Z,10.87
2022-11-15T01:38:46.602Z,10.89
2022-11-15T01:41:18.890Z,10.89
2022-11-15T01:43:50.085Z,10.91
2022-11-15T01:46:22.484Z,10.97
2022-11-15T01:48:51.134Z,10.96
2022-11-15T01:51:20.507Z,10.92
2022-11-15T01:53:50.577Z,10.84
2022-11-15T01:56:24.149Z,10.86
2022-11-15T01:58:52.666Z,10.80
2022-11-15T02:01:19.627Z,10.73
2022-11-15T02:04:25.004Z,10.81
2022-11-15T02:06:51.561Z,10.77
2022-11-15T02:09:18.866Z,10.71
2022-11-15T02:11:47.443Z,10.67
2022-11-15T02:14:17.145Z,10.68
2022-11-15T02:16:46.349Z,10.69
2022-11-15T02:19:18.551Z,10.69
2022-11-15T02:21:59.214Z,10.65
2022-11-15T02:24:42.474Z,10.71
2022-11-15T02:27:53.787Z,10.69
2022-11-15T02:30:27.846Z,10.67
2022-11-15T02:33:15.687Z,10.66
2022-11-15T02:35:56.538Z,10.64
2022-11-15T02:38:48.397Z,10.75
2022-11-15T02:41:21.047Z,10.75
2022-11-15T02:43:58.236Z,10.75
2022-11-15T02:46:56.233Z,10.74
2022-11-15T02:49:26.176Z,10.75
2022-11-15T02:51:54.099Z,10.78
2022-11-15T02:54:24.670Z,10.83
2022-11-15T02:56:55.183Z,10.79
2022-11-15T02:59:42.724Z,10.80
2022-11-15T03:02:38.278Z,10.74
2022-11-15T03:05:23.127Z,10.73
2022-11-15T03:08:20.343Z,10.73
2022-11-15T03:11:11.905Z,10.69
2022-11-15T03:13:59.435Z,10.71
2022-11-15T03:16:34.906Z,10.72
2022-11-15T03:19:10.464Z,10.74
2022-11-15T03:21:40.473Z,10.67
2022-11-15T03:24:09.659Z,10.69
2022-11-15T03:26:40.349Z,10.67
2022-11-15T03:29:18.450Z,10.65
2022-11-15T03:31:50.834Z,10.62
2022-11-15T03:34:32.504Z,10.67
2022-11-15T03:36:59.151Z,10.67
2022-11-15T03:39:27.128Z,10.61
2022-11-15T03:42:15.226Z,10.59
2022-11-15T03:44:53.188Z,10.53
2022-11-15T03:47:30.628Z,10.47
2022-11-15T03:50:03.010Z,10.41
2022-11-15T03:52:34.553Z,10.40
2022-11-15T03:55:03.468Z,10.31
2022-11-15T03:57:30.177Z,10.28
2022-11-15T03:59:56.704Z,10.22
2022-11-15T04:02:23.162Z,10.15
2022-11-15T04:04:49.622Z,10.07
2022-11-15T04:07:16.200Z,10.02
2022-11-15T04:10:01.953Z,10.02
2022-11-15T04:12:31.835Z,10.01
2022-11-15T04:15:09.063Z,9.96
2022-11-15T04:17:36.723Z,9.93
2022-11-15T04:20:27.193Z,9.89
2022-11-15T04:23:13.372Z,9.87
2022-11-15T04:25:40.479Z,9.89
2022-11-15T04:28:06.955Z,9.91
2022-11-15T04:30:33.487Z,9.90
2022-11-15T04:33:00.214Z,9.90
2022-11-15T04:35:26.784Z,9.90
2022-11-15T04:37:53.571Z,9.92
2022-11-15T04:40:20.117Z,9.89
2022-11-15T04:42:46.559Z,9.86
2022-11-15T04:45:13.051Z,9.86
2022-11-15T04:47:39.532Z,9.81
2022-11-15T04:50:06.692Z,9.70
2022-11-15T04:52:33.213Z,9.62
2022-11-15T04:55:03.649Z,9.57
2022-11-15T04:57:33.277Z,9.51
2022-11-15T04:59:59.833Z,9.47
2022-11-15T05:02:46.259Z,9.38
2022-11-15T05:05:12.770Z,9.35
2022-11-15T05:07:39.392Z,9.30
2022-11-15T05:10:05.970Z,9.29
2022-11-15T05:12:32.715Z,9.27
2022-11-15T05:14:59.199Z,9.28
2022-11-15T05:17:25.713Z,9.20
2022-11-15T05:19:52.968Z,9.16
2022-11-15T05:22:20.417Z,9.08
2022-11-15T05:24:46.932Z,9.07
2022-11-15T05:27:13.402Z,9.04
2022-11-15T05:29:39.942Z,9.01
2022-11-15T05:32:06.964Z,9.03
2022-11-15T05:34:33.668Z,9.01
2022-11-15T05:37:00.505Z,9.01
2022-11-15T05:39:27.095Z,9.00
2022-11-15T05:42:00.385Z,8.95
2022-11-15T05:44:27.387Z,8.88
2022-11-15T05:46:56.024Z,8.79
2022-11-15T05:49:27.961Z,8.73
2022-11-15T05:51:55.016Z,8.72
2022-11-15T05:54:24.214Z,8.73
2022-11-15T05:56:50.897Z,8.74
2022-11-15T05:59:18.042Z,8.76
2022-11-15T06:01:44.604Z,8.79
2022-11-15T06:04:11.119Z,8.85
2022-11-15T06:06:37.592Z,8.84
2022-11-15T06:09:04.081Z,8.81
2022-11-15T06:11:30.519Z,8.79
2022-11-15T06:13:57.572Z,8.75
2022-11-15T06:16:24.084Z,8.78
2022-11-15T06:18:50.620Z,8.67
2022-11-15T06:21:17.064Z,8.82
2022-11-15T06:23:43.658Z,8.77
2022-11-15T06:26:10.295Z,8.75
2022-11-15T06:28:36.833Z,8.76
2022-11-15T06:31:05.672Z,8.67
2022-11-15T06:33:32.565Z,8.61
2022-11-15T06:36:04.607Z,8.62
2022-11-15T06:38:31.334Z,8.63
2022-11-15T06:41:07.350Z,8.54
2022-11-15T06:43:35.036Z,8.54
2022-11-15T06:46:05.948Z,8.46
2022-11-15T06:48:33.664Z,8.24
2022-11-15T06:51:01.967Z,8.08
2022-11-15T06:53:29.347Z,8.00
2022-11-15T06:56:00.559Z,8.01
2022-11-15T06:58:27.180Z,7.93
2022-11-15T07:00:53.794Z,7.94
2022-11-15T07:03:20.296Z,7.91
2022-11-15T07:05:57.431Z,8.00
2022-11-15T07:08:27.454Z,7.95
2022-11-15T07:10:53.929Z,7.96
2022-11-15T07:13:20.413Z,7.94
2022-11-15T07:15:46.951Z,8.00
2022-11-15T07:18:13.435Z,8.06
2022-11-15T07:20:40.753Z,8.05
2022-11-15T07:23:07.361Z,8.10
2022-11-15T07:25:34.286Z,8.10
2022-11-15T07:28:01.804Z,8.09
2022-11-15T07:30:28.974Z,8.10
2022-11-15T07:33:00.173Z,8.14
2022-11-15T07:35:27.859Z,8.20
2022-11-15T07:38:02.609Z,8.20
2022-11-15T07:40:32.677Z,8.18
2022-11-15T07:43:07.876Z,8.16
2022-11-15T07:45:35.266Z,8.20
2022-11-15T07:48:02.089Z,8.18
2022-11-15T07:50:30.881Z,8.26
2022-11-15T07:52:59.180Z,8.31
2022-11-15T07:55:28.231Z,8.30
2022-11-15T07:58:00.703Z,8.35
2022-11-15T08:00:27.149Z,8.41
2022-11-15T08:02:53.760Z,8.48
2022-11-15T08:05:20.343Z,8.53
2022-11-15T08:07:46.785Z,8.56
2022-11-15T08:10:13.263Z,8.59
2022-11-15T08:12:39.773Z,8.62
2022-11-15T08:15:06.882Z,8.60
2022-11-15T08:17:34.891Z,8.65
2022-11-15T08:20:01.421Z,8.71
2022-11-15T08:22:28.209Z,8.75
2022-11-15T08:24:54.738Z,8.79
2022-11-15T08:27:21.403Z,8.83
2022-11-15T08:29:49.489Z,8.89
2022-11-15T08:32:16.156Z,8.93
2022-11-15T08:34:42.685Z,9.07
2022-11-15T08:37:09.194Z,9.14
2022-11-15T08:39:35.763Z,9.22
2022-11-15T08:42:02.355Z,9.28
2022-11-15T08:44:28.880Z,9.33
2022-11-15T08:46:55.465Z,9.46
2022-11-15T08:49:21.986Z,9.54
2022-11-15T08:51:48.602Z,9.56
2022-11-15T08:54:15.311Z,9.62
2022-11-15T08:56:41.845Z,9.70
2022-11-15T08:59:08.529Z,9.75
2022-11-15T09:01:35.131Z,9.80
2022-11-15T09:04:01.756Z,9.84
2022-11-15T09:06:28.474Z,9.93
2022-11-15T09:08:55.134Z,9.98
2022-11-15T09:11:23.274Z,10.01
2022-11-15T09:13:50.721Z,10.00
2022-11-15T09:16:17.426Z,9.99
2022-11-15T09:18:44.128Z,9.97
2022-11-15T09:21:11.078Z,9.97
2022-11-15T09:23:37.650Z,9.88
2022-11-15T09:26:05.831Z,9.84
2022-11-15T09:28:34.436Z,9.87
2022-11-15T09:31:03.267Z,9.90
2022-11-15T09:33:30.624Z,10.02
2022-11-15T09:36:08.274Z,10.09
2022-11-15T09:38:36.025Z,10.12
2022-11-15T09:41:15.849Z,10.29
2022-11-15T09:44:25.332Z,10.41
2022-11-15T09:47:54.979Z,10.61
2022-11-15T09:50:41.287Z,10.69
2022-11-15T09:53:14.203Z,10.71
2022-11-15T09:56:02.615Z,10.83
2022-11-15T09:58:43.656Z,10.96
2022-11-15T10:01:30.536Z,11.01
2022-11-15T10:04:00.189Z,11.04
2022-11-15T10:06:28.312Z,11.00
2022-11-15T10:09:13.143Z,11.03
2022-11-15T10:11:42.023Z,11.02
2022-11-15T10:14:16.733Z,11.06
2022-11-15T10:16:58.410Z,11.12
2022-11-15T10:19:35.037Z,11.24
2022-11-15T10:22:12.685Z,11.36
2022-11-15T10:24:43.768Z,11.55
2022-11-15T10:27:28.250Z,11.73
2022-11-15T10:29:54.717Z,11.92
2022-11-15T10:32:22.276Z,12.23
2022-11-15T10:34:50.595Z,12.48
2022-11-15T10:37:32.730Z,12.56
2022-11-15T10:40:28.601Z,12.56
2022-11-15T10:43:11.937Z,12.43
2022-11-15T10:45:39.516Z,12.40
2022-11-15T10:48:15.413Z,12.37
2022-11-15T10:50:49.585Z,12.69
2022-11-15T10:53:22.641Z,13.00
2022-11-15T10:55:53.531Z,13.29
2022-11-15T10:58:43.864Z,13.48
2022-11-15T11:01:19.127Z,13.59
2022-11-15T11:04:00.211Z,13.58
2022-11-15T11:06:27.248Z,13.68
2022-11-15T11:08:59.810Z,13.68
2022-11-15T11:11:46.438Z,13.36
2022-11-15T11:14:18.850Z,13.18
2022-11-15T11:17:23.053Z,13.13
2022-11-15T11:19:55.363Z,13.28
2022-11-15T11:22:33.833Z,13.48
2022-11-15T11:25:00.238Z,13.76
2022-11-15T11:27:40.559Z,13.89
2022-11-15T11:30:14.498Z,14.07
2022-11-15T11:33:10.669Z,14.33
2022-11-15T11:35:59.156Z,13.93
2022-11-15T11:38:52.883Z,13.92
2022-11-15T11:41:36.438Z,13.74
2022-11-15T11:44:26.724Z,13.40
2022-11-15T11:47:10.040Z,13.10
2022-11-15T11:49:44.052Z,12.83
2022-11-15T11:52:23.400Z,12.73
2022-11-15T11:54:58.665Z,12.62
2022-11-15T11:57:38.332Z,12.56
2022-11-15T12:00:21.877Z,12.58
2022-11-15T12:02:56.278Z,12.58
2022-11-15T12:05:41.018Z,12.69
2022-11-15T12:08:29.705Z,12.84
2022-11-15T12:11:12.065Z,12.86
2022-11-15T12:13:39.773Z,12.88
2022-11-15T12:16:12.509Z,12.86
2022-11-15T12:18:39.419Z,12.83
2022-11-15T12:21:17.267Z,12.78
2022-11-15T12:23:51.713Z,12.75
2022-11-15T12:26:25.962Z,12.69
2022-11-15T12:29:07.570Z,12.65
2022-11-15T12:31:35.082Z,12.64
2022-11-15T12:34:23.447Z,12.59
2022-11-15T12:36:51.902Z,12.58
2022-11-15T12:39:19.565Z,12.51
2022-11-15T12:42:06.115Z,12.52
2022-11-15T12:44:32.604Z,12.52
2022-11-15T12:47:03.267Z,12.47
2022-11-15T12:49:29.860Z,12.51
2022-11-15T12:51:59.053Z,12.49
2022-11-15T12:54:25.517Z,12.47
2022-11-15T12:57:03.909Z,12.47
2022-11-15T13:00:02.566Z,12.45
2022-11-15T13:02:40.899Z,12.46
2022-11-15T13:05:16.471Z,12.44
2022-11-15T13:07:42.943Z,12.41
2022-11-15T13:10:15.159Z,12.42
2022-11-15T13:12:47.583Z,12.46
2022-11-15T13:15:14.064Z,12.45
2022-11-15T13:17:44.408Z,12.46
2022-11-15T13:20:16.584Z,12.48
2022-11-15T13:23:03.330Z,12.44
2022-11-15T13:25:53.998Z,12.46
2022-11-15T13:28:46.370Z,12.44
2022-11-15T13:31:37.147Z,12.42
2022-11-15T13:34:50.470Z,12.41
2022-11-15T13:37:34.716Z,12.44
2022-11-15T13:40:23.169Z,12.46
2022-11-15T13:42:50.228Z,12.41
2022-11-15T13:45:18.961Z,12.45
2022-11-15T13:47:45.671Z,12.37
2022-11-15T13:50:13.653Z,12.40
2022-11-15T13:52:44.701Z,12.37
2022-11-15T13:55:15.993Z,12.36
2022-11-15T13:57:46.947Z,12.38
2022-11-15T14:00:41.221Z,12.33
2022-11-15T14:03:32.921Z,12.31
2022-11-15T14:06:19.048Z,12.28
2022-11-15T14:09:04.122Z,12.27
2022-11-15T14:11:31.616Z,12.23
2022-11-15T14:14:10.200Z,12.25
2022-11-15T14:16:42.620Z,12.20
2022-11-15T14:19:35.122Z,12.16
2022-11-15T14:22:26.628Z,11.96
2022-11-15T14:25:09.277Z,11.88
2022-11-15T14:27:38.676Z,11.71
2022-11-15T14:30:27.351Z,11.58
2022-11-15T14:32:55.503Z,11.61
2022-11-15T14:35:23.683Z,11.51
2022-11-15T14:37:50.966Z,11.43
2022-11-15T14:40:20.852Z,11.34
2022-11-15T14:42:48.955Z,11.20
2022-11-15T14:45:18.431Z,11.19
2022-11-15T14:47:45.602Z,11.18
2022-11-15T14:50:21.933Z,11.21
2022-11-15T14:52:49.386Z,11.05
2022-11-15T14:55:42.026Z,11.06
2022-11-15T14:58:09.092Z,10.94
2022-11-15T15:00:40.546Z,10.88
2022-11-15T15:03:08.116Z,10.82
2022-11-15T15:05:42.086Z,10.75
2022-11-15T15:08:09.453Z,10.68
2022-11-15T15:10:41.060Z,10.65
2022-11-15T15:13:17.699Z,10.59
2022-11-15T15:15:44.349Z,10.54
2022-11-15T15:18:12.276Z,10.54
2022-11-15T15:20:42.157Z,10.56
2022-11-15T15:23:20.056Z,10.54
2022-11-15T15:25:49.792Z,10.55
2022-11-15T15:28:16.562Z,10.51
2022-11-15T15:30:43.284Z,10.53
2022-11-15T15:33:09.876Z,10.41
2022-11-15T15:35:36.458Z,10.52
2022-11-15T15:38:04.390Z,10.43
2022-11-15T15:40:36.962Z,10.47
2022-11-15T15:43:03.580Z,10.45
2022-11-15T15:45:30.798Z,10.42
2022-11-15T15:47:57.645Z,10.44
2022-11-15T15:50:25.747Z,10.46
2022-11-15T15:52:54.749Z,10.47
2022-11-15T15:55:21.793Z,10.50
2022-11-15T15:57:49.106Z,10.41
2022-11-15T16:00:17.775Z,10.40
2022-11-15T16:02:44.414Z,10.40
2022-11-15T16:05:13.025Z,10.48
2022-11-15T16:07:41.127Z,10.47
2022-11-15T16:10:26.490Z,10.47
2022-11-15T16:12:54.586Z,10.48
2022-11-15T16:15:23.091Z,10.46
2022-11-15T16:18:02.117Z,10.53
2022-11-15T16:20:40.620Z,10.57
2022-11-15T16:23:12.413Z,10.59
2022-11-15T16:25:53.982Z,10.61
2022-11-15T16:28:32.331Z,10.66
2022-11-15T16:31:13.149Z,10.69
2022-11-15T16:33:40.726Z,10.66
2022-11-15T16:36:23.321Z,10.70
2022-11-15T16:38:52.935Z,10.71
2022-11-15T16:41:19.833Z,10.67
2022-11-15T16:43:47.763Z,10.73
2022-11-15T16:46:25.206Z,10.75
2022-11-15T16:48:53.815Z,10.73
2022-11-15T16:51:20.628Z,10.72
2022-11-15T16:53:48.929Z,10.74
2022-11-15T16:56:29.756Z,10.74
2022-11-15T16:59:00.489Z,10.75
2022-11-15T17:01:29.550Z,10.80
2022-11-15T17:03:56.587Z,10.77
2022-11-15T17:06:24.825Z,10.77
2022-11-15T17:08:51.441Z,10.84
2022-11-15T17:11:21.096Z,10.83
2022-11-15T17:13:48.766Z,10.87
2022-11-15T17:16:17.658Z,10.88
2022-11-15T17:18:47.573Z,10.86
2022-11-15T17:21:18.373Z,10.86
2022-11-15T17:23:45.509Z,10.88
2022-11-15T17:26:31.999Z,10.89
2022-11-15T17:29:01.639Z,10.93
2022-11-15T17:31:30.803Z,10.96
2022-11-15T17:33:57.394Z,10.94
2022-11-15T17:36:23.921Z,10.94
2022-11-15T17:38:57.999Z,10.96
2022-11-15T17:41:26.436Z,10.96
2022-11-15T17:43:53.448Z,10.99
2022-11-15T17:46:21.438Z,11.05
2022-11-15T17:48:51.132Z,11.03
2022-11-15T17:51:18.936Z,11.08
2022-11-15T17:53:47.376Z,11.07
2022-11-15T17:56:16.562Z,11.08
2022-11-15T17:58:48.880Z,11.11
2022-11-15T18:01:21.237Z,11.11
2022-11-15T18:03:48.544Z,11.15
2022-11-15T18:06:16.099Z,11.13
2022-11-15T18:08:46.650Z,11.12
2022-11-15T18:11:18.877Z,11.14
2022-11-15T18:13:52.107Z,11.17
2022-11-15T18:16:21.992Z,11.14
2022-11-15T18:18:49.225Z,11.18
2022-11-15T18:21:22.377Z,11.18
2022-11-15T18:23:53.059Z,11.12
2022-11-15T18:26:27.242Z,11.15
2022-11-15T18:29:02.225Z,11.16
2022-11-15T18:31:30.916Z,11.14
2022-11-15T18:34:00.005Z,11.14
2022-11-15T18:36:28.937Z,11.12
2022-11-15T18:39:05.819Z,11.11
2022-11-15T18:41:34.869Z,11.20
2022-11-15T18:44:05.184Z,11.16
2022-11-15T18:46:32.886Z,11.23
2022-11-15T18:49:01.541Z,11.19
2022-11-15T18:51:30.915Z,11.14
2022-11-15T18:54:00.790Z,11.24
2022-11-15T18:56:29.635Z,11.22
2022-11-15T18:59:01.864Z,11.06
2022-11-15T19:01:36.708Z,11.08
2022-11-15T19:04:16.933Z,10.98
2022-11-15T19:06:49.954Z,10.91
2022-11-15T19:09:33.971Z,10.95
2022-11-15T19:12:09.180Z,11.00
2022-11-15T19:14:38.333Z,10.92
2022-11-15T19:17:12.458Z,10.93
2022-11-15T19:19:39.172Z,10.88
2022-11-15T19:22:05.838Z,10.87
2022-11-15T19:24:33.045Z,10.91
2022-11-15T19:26:59.531Z,10.87
2022-11-15T19:29:28.969Z,10.87
2022-11-15T19:31:55.650Z,10.84
2022-11-15T19:34:25.136Z,10.83
2022-11-15T19:36:51.776Z,10.86
2022-11-15T19:39:18.670Z,10.98
2022-11-15T19:41:52.037Z,10.94
2022-11-15T19:44:19.551Z,10.94
2022-11-15T19:46:46.099Z,10.96
2022-11-15T19:49:15.244Z,11.06
2022-11-15T19:51:42.839Z,11.04
2022-11-15T19:54:10.609Z,11.02
2022-11-15T19:56:38.201Z,11.01
2022-11-15T19:59:11.347Z,11.01
2022-11-15T20:01:39.265Z,11.07
2022-11-15T20:04:08.410Z,11.11
2022-11-15T20:06:41.337Z,11.17
2022-11-15T20:09:11.605Z,11.03
2022-11-15T20:11:39.435Z,11.08
2022-11-15T20:14:10.870Z,11.08
2022-11-15T20:16:37.825Z,11.09
2022-11-15T20:19:04.787Z,11.19
2022-11-15T20:21:31.403Z,11.17
2022-11-15T20:23:57.941Z,11.19
2022-11-15T20:26:25.071Z,11.20
2022-11-15T20:28:51.639Z,11.17
2022-11-15T20:31:18.223Z,11.24
2022-11-15T20:33:45.245Z,11.23
2022-11-15T20:36:15.361Z,11.31
2022-11-15T20:38:42.009Z,11.29
2022-11-15T20:41:10.558Z,11.32
2022-11-15T20:43:37.235Z,11.31
2022-11-15T20:46:04.310Z,11.33
2022-11-15T20:48:31.332Z,11.32
2022-11-15T20:51:24.226Z,11.33
2022-11-15T20:53:50.805Z,11.31
2022-11-15T20:56:20.315Z,11.38
2022-11-15T20:58:48.229Z,11.39
2022-11-15T21:01:16.212Z,11.38
2022-11-15T21:03:43.634Z,11.41
2022-11-15T21:06:11.109Z,11.42
2022-11-15T21:08:55.992Z,11.39
2022-11-15T21:11:42.587Z,11.41
2022-11-15T21:14:09.882Z,11.43
2022-11-15T21:16:37.196Z,11.43
2022-11-15T21:19:03.706Z,11.44
2022-11-15T21:21:30.193Z,11.43
2022-11-15T21:23:56.672Z,11.41
2022-11-15T21:26:23.192Z,11.38
2022-11-15T21:28:49.734Z,11.44
2022-11-15T21:31:16.322Z,11.44
2022-11-15T21:33:42.783Z,11.43
2022-11-15T21:36:09.368Z,11.42
2022-11-15T21:38:36.220Z,11.45
2022-11-15T21:41:03.950Z,11.44
2022-11-15T21:43:30.573Z,11.42
2022-11-15T21:46:06.568Z,11.44
2022-11-15T21:48:35.096Z,11.46
2022-11-15T21:51:05.373Z,11.47
2022-11-15T21:53:32.930Z,11.44
2022-11-15T21:56:00.859Z,11.47
2022-11-15T21:58:28.083Z,11.43
2022-11-15T22:01:14.576Z,11.48
2022-11-15T22:03:42.312Z,11.51
2022-11-15T22:06:14.369Z,11.50
2022-11-15T22:08:44.585Z,11.50
2022-11-15T22:11:11.115Z,11.54
2022-11-15T22:13:37.944Z,11.55
2022-11-15T22:16:04.585Z,11.53
2022-11-15T22:18:31.405Z,11.56
2022-11-15T22:21:01.643Z,11.58
2022-11-15T22:23:29.970Z,11.60
2022-11-15T22:25:56.777Z,11.54
2022-11-15T22:28:24.355Z,11.58
2022-11-15T22:30:52.479Z,11.57
2022-11-15T22:33:20.679Z,11.57
2022-11-15T22:35:47.976Z,11.56
2022-11-15T22:38:14.941Z,11.58
2022-11-15T22:40:41.841Z,11.55
2022-11-15T22:43:08.443Z,11.61
2022-11-15T22:45:34.912Z,11.56
2022-11-15T22:48:01.427Z,11.59
2022-11-15T22:50:28.122Z,11.60
2022-11-15T22:52:54.966Z,11.60
2022-11-15T22:55:21.422Z,11.58
2022-11-15T22:57:48.013Z,11.58
2022-11-15T23:00:16.157Z,11.62
2022-11-15T23:02:42.881Z,11.58
2022-11-15T23:05:09.697Z,11.60
2022-11-15T23:07:36.287Z,11.63
2022-11-15T23:10:21.451Z,11.61
2022-11-15T23:13:06.714Z,11.66
2022-11-15T23:15:52.022Z,11.69
2022-11-15T23:18:19.354Z,11.72
2022-11-15T23:20:46.274Z,11.72
2022-11-15T23:23:13.452Z,11.72
2022-11-15T23:25:39.937Z,11.69
2022-11-15T23:28:07.064Z,11.66
2022-11-15T23:30:55.657Z,11.65
2022-11-15T23:33:41.215Z,11.59
2022-11-15T23:36:08.064Z,11.58
2022-11-15T23:38:37.672Z,11.55
2022-11-15T23:41:05.816Z,11.50
2022-11-15T23:43:32.859Z,11.48
2022-11-15T23:46:02.363Z,11.44
2022-11-15T23:48:29.554Z,11.43
2022-11-15T23:50:56.233Z,11.39
2022-11-15T23:53:23.234Z,11.33
2022-11-15T23:56:03.391Z,11.35
2022-11-15T23:58:29.971Z,11.30
